sensor_id;sensor_type;location;lat;lon;timestamp;P1;durP1;ratioP1;P2;durP2;ratioP2
15936;SDS011;9163;48.818;8.976;2023-06-22T00:00:16;13.30;;;10.27;;
15936;SDS011;9163;48.818;8.976;2023-06-22T00:02:44;11.87;;;9.23;;
15936;SDS011;9163;48.818;8.976;2023-06-22T00:05:11;13.43;;;10.30;;
15936;SDS011;9163;48.818;8.976;2023-06-22T00:07:39;11.50;;;9.73;;
15936;SDS011;9163;48.818;8.976;2023-06-22T00:10:07;14.87;;;10.63;;
15936;SDS011;9163;48.818;8.976;2023-06-22T00:12:34;13.93;;;10.67;;
15936;SDS011;9163;48.818;8.976;2023-06-22T00:15:02;15.13;;;10.53;;
15936;SDS011;9163;48.818;8.976;2023-06-22T00:17:30;15.10;;;10.53;;
15936;SDS011;9163;48.818;8.976;2023-06-22T00:19:57;16.77;;;11.70;;
15936;SDS011;9163;48.818;8.976;2023-06-22T00:22:25;13.67;;;11.03;;
15936;SDS011;9163;48.818;8.976;2023-06-22T00:24:56;12.93;;;10.60;;
15936;SDS011;9163;48.818;8.976;2023-06-22T00:27:23;13.73;;;11.50;;
15936;SDS011;9163;48.818;8.976;2023-06-22T00:29:50;14.13;;;11.27;;
15936;SDS011;9163;48.818;8.976;2023-06-22T00:32:18;12.50;;;10.47;;
15936;SDS011;9163;48.818;8.976;2023-06-22T00:34:45;13.53;;;10.30;;
15936;SDS011;9163;48.818;8.976;2023-06-22T00:37:12;13.57;;;9.90;;
15936;SDS011;9163;48.818;8.976;2023-06-22T00:39:39;14.77;;;10.87;;
15936;SDS011;9163;48.818;8.976;2023-06-22T00:42:08;13.73;;;10.73;;
15936;SDS011;9163;48.818;8.976;2023-06-22T00:44:35;12.77;;;10.10;;
15936;SDS011;9163;48.818;8.976;2023-06-22T00:47:03;12.60;;;9.80;;
15936;SDS011;9163;48.818;8.976;2023-06-22T00:49:32;13.67;;;9.73;;
15936;SDS011;9163;48.818;8.976;2023-06-22T00:51:59;12.50;;;10.00;;
15936;SDS011;9163;48.818;8.976;2023-06-22T00:54:26;11.47;;;9.73;;
15936;SDS011;9163;48.818;8.976;2023-06-22T00:56:54;14.03;;;10.63;;
15936;SDS011;9163;48.818;8.976;2023-06-22T00:59:24;13.97;;;10.53;;
15936;SDS011;9163;48.818;8.976;2023-06-22T01:01:52;13.50;;;10.00;;
15936;SDS011;9163;48.818;8.976;2023-06-22T01:04:21;14.97;;;10.20;;
15936;SDS011;9163;48.818;8.976;2023-06-22T01:06:52;12.10;;;9.50;;
15936;SDS011;9163;48.818;8.976;2023-06-22T01:09:28;13.47;;;9.07;;
15936;SDS011;9163;48.818;8.976;2023-06-22T01:12:00;10.30;;;8.47;;
15936;SDS011;9163;48.818;8.976;2023-06-22T01:14:33;10.77;;;8.50;;
15936;SDS011;9163;48.818;8.976;2023-06-22T01:17:04;11.63;;;8.47;;
15936;SDS011;9163;48.818;8.976;2023-06-22T01:19:35;11.97;;;8.33;;
15936;SDS011;9163;48.818;8.976;2023-06-22T01:22:08;15.03;;;9.20;;
15936;SDS011;9163;48.818;8.976;2023-06-22T01:24:41;11.97;;;8.77;;
15936;SDS011;9163;48.818;8.976;2023-06-22T01:27:22;13.50;;;9.20;;
15936;SDS011;9163;48.818;8.976;2023-06-22T01:30:08;11.40;;;8.57;;
15936;SDS011;9163;48.818;8.976;2023-06-22T01:32:37;9.90;;;8.47;;
15936;SDS011;9163;48.818;8.976;2023-06-22T01:35:07;14.63;;;9.83;;
15936;SDS011;9163;48.818;8.976;2023-06-22T01:37:37;11.63;;;10.13;;
15936;SDS011;9163;48.818;8.976;2023-06-22T01:40:05;13.27;;;10.33;;
15936;SDS011;9163;48.818;8.976;2023-06-22T01:42:33;14.13;;;10.47;;
15936;SDS011;9163;48.818;8.976;2023-06-22T01:45:02;14.53;;;10.17;;
15936;SDS011;9163;48.818;8.976;2023-06-22T01:47:31;14.07;;;8.50;;
15936;SDS011;9163;48.818;8.976;2023-06-22T01:49:59;11.30;;;8.20;;
15936;SDS011;9163;48.818;8.976;2023-06-22T01:52:26;12.63;;;9.20;;
15936;SDS011;9163;48.818;8.976;2023-06-22T01:54:53;13.67;;;9.57;;
15936;SDS011;9163;48.818;8.976;2023-06-22T01:57:23;11.83;;;10.17;;
15936;SDS011;9163;48.818;8.976;2023-06-22T01:59:53;13.60;;;10.93;;
15936;SDS011;9163;48.818;8.976;2023-06-22T02:02:26;16.27;;;11.50;;
15936;SDS011;9163;48.818;8.976;2023-06-22T02:05:01;16.80;;;11.80;;
15936;SDS011;9163;48.818;8.976;2023-06-22T02:07:33;16.47;;;11.23;;
15936;SDS011;9163;48.818;8.976;2023-06-22T02:10:06;15.00;;;11.77;;
15936;SDS011;9163;48.818;8.976;2023-06-22T02:12:34;14.93;;;11.10;;
15936;SDS011;9163;48.818;8.976;2023-06-22T02:15:03;13.77;;;11.33;;
15936;SDS011;9163;48.818;8.976;2023-06-22T02:17:32;15.47;;;11.67;;
15936;SDS011;9163;48.818;8.976;2023-06-22T02:20:02;15.90;;;11.67;;
15936;SDS011;9163;48.818;8.976;2023-06-22T02:22:31;14.07;;;11.13;;
15936;SDS011;9163;48.818;8.976;2023-06-22T02:24:58;13.70;;;11.00;;
15936;SDS011;9163;48.818;8.976;2023-06-22T02:27:26;13.40;;;11.37;;
15936;SDS011;9163;48.818;8.976;2023-06-22T02:29:53;13.40;;;11.20;;
15936;SDS011;9163;48.818;8.976;2023-06-22T02:32:20;14.87;;;11.83;;
15936;SDS011;9163;48.818;8.976;2023-06-22T02:34:48;16.00;;;11.90;;
15936;SDS011;9163;48.818;8.976;2023-06-22T02:37:16;15.53;;;11.87;;
15936;SDS011;9163;48.818;8.976;2023-06-22T02:39:44;16.20;;;12.03;;
15936;SDS011;9163;48.818;8.976;2023-06-22T02:42:11;16.37;;;12.53;;
15936;SDS011;9163;48.818;8.976;2023-06-22T02:44:38;15.23;;;12.30;;
15936;SDS011;9163;48.818;8.976;2023-06-22T02:47:07;16.63;;;12.27;;
15936;SDS011;9163;48.818;8.976;2023-06-22T02:49:34;16.70;;;12.97;;
15936;SDS011;9163;48.818;8.976;2023-06-22T02:52:02;16.40;;;13.07;;
15936;SDS011;9163;48.818;8.976;2023-06-22T02:54:31;19.90;;;13.37;;
15936;SDS011;9163;48.818;8.976;2023-06-22T02:56:58;17.33;;;12.57;;
15936;SDS011;9163;48.818;8.976;2023-06-22T02:59:28;15.53;;;11.23;;
15936;SDS011;9163;48.818;8.976;2023-06-22T03:01:55;15.23;;;12.07;;
15936;SDS011;9163;48.818;8.976;2023-06-22T03:04:22;16.57;;;11.47;;
15936;SDS011;9163;48.818;8.976;2023-06-22T03:06:49;16.63;;;12.53;;
15936;SDS011;9163;48.818;8.976;2023-06-22T03:09:17;15.93;;;12.57;;
15936;SDS011;9163;48.818;8.976;2023-06-22T03:11:45;15.93;;;12.83;;
15936;SDS011;9163;48.818;8.976;2023-06-22T03:14:13;17.83;;;13.70;;
15936;SDS011;9163;48.818;8.976;2023-06-22T03:16:40;16.33;;;12.70;;
15936;SDS011;9163;48.818;8.976;2023-06-22T03:19:07;17.40;;;13.07;;
15936;SDS011;9163;48.818;8.976;2023-06-22T03:21:34;17.83;;;13.83;;
15936;SDS011;9163;48.818;8.976;2023-06-22T03:24:03;15.63;;;13.60;;
15936;SDS011;9163;48.818;8.976;2023-06-22T03:26:30;20.70;;;13.10;;
15936;SDS011;9163;48.818;8.976;2023-06-22T03:28:59;17.67;;;13.77;;
15936;SDS011;9163;48.818;8.976;2023-06-22T03:31:26;17.17;;;12.90;;
15936;SDS011;9163;48.818;8.976;2023-06-22T03:33:53;18.33;;;13.03;;
15936;SDS011;9163;48.818;8.976;2023-06-22T03:36:21;16.40;;;12.57;;
15936;SDS011;9163;48.818;8.976;2023-06-22T03:38:49;17.57;;;12.60;;
15936;SDS011;9163;48.818;8.976;2023-06-22T03:41:17;12.83;;;11.50;;
15936;SDS011;9163;48.818;8.976;2023-06-22T03:43:44;16.63;;;12.43;;
15936;SDS011;9163;48.818;8.976;2023-06-22T03:46:12;18.60;;;12.30;;
15936;SDS011;9163;48.818;8.976;2023-06-22T03:48:40;14.47;;;11.23;;
15936;SDS011;9163;48.818;8.976;2023-06-22T03:51:07;17.40;;;12.97;;
15936;SDS011;9163;48.818;8.976;2023-06-22T03:53:35;15.93;;;12.70;;
15936;SDS011;9163;48.818;8.976;2023-06-22T03:56:02;16.03;;;12.40;;
15936;SDS011;9163;48.818;8.976;2023-06-22T03:58:29;18.40;;;12.13;;
15936;SDS011;9163;48.818;8.976;2023-06-22T04:00:59;17.37;;;12.57;;
15936;SDS011;9163;48.818;8.976;2023-06-22T04:03:27;15.60;;;11.53;;
15936;SDS011;9163;48.818;8.976;2023-06-22T04:05:55;14.93;;;12.00;;
15936;SDS011;9163;48.818;8.976;2023-06-22T04:08:22;16.70;;;12.23;;
15936;SDS011;9163;48.818;8.976;2023-06-22T04:10:49;16.90;;;12.10;;
15936;SDS011;9163;48.818;8.976;2023-06-22T04:13:16;14.50;;;11.77;;
15936;SDS011;9163;48.818;8.976;2023-06-22T04:15:43;19.97;;;13.30;;
15936;SDS011;9163;48.818;8.976;2023-06-22T04:18:11;15.73;;;12.07;;
15936;SDS011;9163;48.818;8.976;2023-06-22T04:20:40;16.03;;;11.67;;
15936;SDS011;9163;48.818;8.976;2023-06-22T04:23:07;14.80;;;12.23;;
15936;SDS011;9163;48.818;8.976;2023-06-22T04:25:34;15.13;;;12.03;;
15936;SDS011;9163;48.818;8.976;2023-06-22T04:28:02;14.97;;;11.87;;
15936;SDS011;9163;48.818;8.976;2023-06-22T04:30:29;15.23;;;11.97;;
15936;SDS011;9163;48.818;8.976;2023-06-22T04:32:59;17.40;;;12.43;;
15936;SDS011;9163;48.818;8.976;2023-06-22T04:35:26;15.93;;;11.70;;
15936;SDS011;9163;48.818;8.976;2023-06-22T04:37:57;16.10;;;11.83;;
15936;SDS011;9163;48.818;8.976;2023-06-22T04:40:25;14.63;;;11.40;;
15936;SDS011;9163;48.818;8.976;2023-06-22T04:42:53;14.43;;;12.47;;
15936;SDS011;9163;48.818;8.976;2023-06-22T04:45:20;14.67;;;11.80;;
15936;SDS011;9163;48.818;8.976;2023-06-22T04:47:47;18.43;;;12.70;;
15936;SDS011;9163;48.818;8.976;2023-06-22T04:50:15;13.47;;;11.73;;
15936;SDS011;9163;48.818;8.976;2023-06-22T04:52:43;14.60;;;11.63;;
15936;SDS011;9163;48.818;8.976;2023-06-22T04:55:12;15.80;;;12.17;;
15936;SDS011;9163;48.818;8.976;2023-06-22T04:57:43;15.97;;;11.33;;
15936;SDS011;9163;48.818;8.976;2023-06-22T05:00:14;16.00;;;11.97;;
15936;SDS011;9163;48.818;8.976;2023-06-22T05:02:43;15.07;;;11.70;;
15936;SDS011;9163;48.818;8.976;2023-06-22T05:05:11;14.27;;;11.53;;
15936;SDS011;9163;48.818;8.976;2023-06-22T05:07:40;15.67;;;12.70;;
15936;SDS011;9163;48.818;8.976;2023-06-22T05:10:09;15.70;;;12.00;;
15936;SDS011;9163;48.818;8.976;2023-06-22T05:12:38;15.50;;;11.60;;
15936;SDS011;9163;48.818;8.976;2023-06-22T05:15:07;15.00;;;11.67;;
15936;SDS011;9163;48.818;8.976;2023-06-22T05:17:35;16.87;;;11.47;;
15936;SDS011;9163;48.818;8.976;2023-06-22T05:20:08;13.40;;;10.97;;
15936;SDS011;9163;48.818;8.976;2023-06-22T05:22:36;14.13;;;10.83;;
15936;SDS011;9163;48.818;8.976;2023-06-22T05:25:05;16.77;;;11.13;;
15936;SDS011;9163;48.818;8.976;2023-06-22T05:27:36;13.23;;;10.53;;
15936;SDS011;9163;48.818;8.976;2023-06-22T05:30:06;17.67;;;11.20;;
15936;SDS011;9163;48.818;8.976;2023-06-22T05:32:34;13.37;;;10.90;;
15936;SDS011;9163;48.818;8.976;2023-06-22T05:35:02;13.80;;;10.37;;
15936;SDS011;9163;48.818;8.976;2023-06-22T05:37:30;14.20;;;10.47;;
15936;SDS011;9163;48.818;8.976;2023-06-22T05:39:57;13.57;;;10.60;;
15936;SDS011;9163;48.818;8.976;2023-06-22T05:42:24;13.77;;;10.60;;
15936;SDS011;9163;48.818;8.976;2023-06-22T05:44:53;14.73;;;10.30;;
15936;SDS011;9163;48.818;8.976;2023-06-22T05:47:20;13.60;;;11.27;;
15936;SDS011;9163;48.818;8.976;2023-06-22T05:49:48;14.37;;;11.00;;
15936;SDS011;9163;48.818;8.976;2023-06-22T05:52:15;15.13;;;11.57;;
15936;SDS011;9163;48.818;8.976;2023-06-22T05:54:42;14.50;;;10.70;;
15936;SDS011;9163;48.818;8.976;2023-06-22T05:57:10;12.70;;;11.33;;
15936;SDS011;9163;48.818;8.976;2023-06-22T05:59:37;13.80;;;11.37;;
15936;SDS011;9163;48.818;8.976;2023-06-22T06:02:06;14.80;;;11.13;;
15936;SDS011;9163;48.818;8.976;2023-06-22T06:04:33;16.17;;;11.37;;
15936;SDS011;9163;48.818;8.976;2023-06-22T06:07:01;16.77;;;11.50;;
15936;SDS011;9163;48.818;8.976;2023-06-22T06:09:28;14.97;;;11.20;;
15936;SDS011;9163;48.818;8.976;2023-06-22T06:11:55;12.70;;;10.00;;
15936;SDS011;9163;48.818;8.976;2023-06-22T06:14:23;14.63;;;10.00;;
15936;SDS011;9163;48.818;8.976;2023-06-22T06:16:50;12.10;;;10.23;;
15936;SDS011;9163;48.818;8.976;2023-06-22T06:19:18;13.83;;;10.07;;
15936;SDS011;9163;48.818;8.976;2023-06-22T06:21:46;12.13;;;9.37;;
15936;SDS011;9163;48.818;8.976;2023-06-22T06:24:13;11.83;;;9.30;;
15936;SDS011;9163;48.818;8.976;2023-06-22T06:26:40;10.47;;;9.13;;
15936;SDS011;9163;48.818;8.976;2023-06-22T06:29:08;11.80;;;9.17;;
15936;SDS011;9163;48.818;8.976;2023-06-22T06:31:35;14.23;;;9.43;;
15936;SDS011;9163;48.818;8.976;2023-06-22T06:34:02;12.43;;;9.57;;
15936;SDS011;9163;48.818;8.976;2023-06-22T06:36:31;12.27;;;9.17;;
15936;SDS011;9163;48.818;8.976;2023-06-22T06:38:58;12.10;;;8.57;;
15936;SDS011;9163;48.818;8.976;2023-06-22T06:41:25;11.75;;;7.38;;
15936;SDS011;9163;48.818;8.976;2023-06-22T06:43:52;11.20;;;6.90;;
15936;SDS011;9163;48.818;8.976;2023-06-22T06:46:20;9.75;;;7.50;;
15936;SDS011;9163;48.818;8.976;2023-06-22T06:48:47;10.07;;;7.40;;
15936;SDS011;9163;48.818;8.976;2023-06-22T06:51:14;10.60;;;7.55;;
15936;SDS011;9163;48.818;8.976;2023-06-22T06:53:42;12.30;;;8.15;;
15936;SDS011;9163;48.818;8.976;2023-06-22T06:56:10;9.88;;;8.10;;
15936;SDS011;9163;48.818;8.976;2023-06-22T06:58:38;10.68;;;7.15;;
15936;SDS011;9163;48.818;8.976;2023-06-22T07:01:07;10.15;;;7.07;;
15936;SDS011;9163;48.818;8.976;2023-06-22T07:03:34;10.27;;;7.23;;
15936;SDS011;9163;48.818;8.976;2023-06-22T07:06:02;9.60;;;6.82;;
15936;SDS011;9163;48.818;8.976;2023-06-22T07:08:29;10.93;;;7.38;;
15936;SDS011;9163;48.818;8.976;2023-06-22T07:10:58;10.18;;;6.80;;
15936;SDS011;9163;48.818;8.976;2023-06-22T07:13:26;8.43;;;6.68;;
15936;SDS011;9163;48.818;8.976;2023-06-22T07:15:53;9.07;;;6.93;;
15936;SDS011;9163;48.818;8.976;2023-06-22T07:18:20;10.18;;;7.07;;
15936;SDS011;9163;48.818;8.976;2023-06-22T07:20:48;12.18;;;7.18;;
15936;SDS011;9163;48.818;8.976;2023-06-22T07:23:15;10.25;;;6.80;;
15936;SDS011;9163;48.818;8.976;2023-06-22T07:25:43;9.70;;;6.15;;
15936;SDS011;9163;48.818;8.976;2023-06-22T07:28:12;7.70;;;6.25;;
15936;SDS011;9163;48.818;8.976;2023-06-22T07:30:39;8.25;;;6.50;;
15936;SDS011;9163;48.818;8.976;2023-06-22T07:33:06;9.82;;;6.65;;
15936;SDS011;9163;48.818;8.976;2023-06-22T07:35:34;9.40;;;6.43;;
15936;SDS011;9163;48.818;8.976;2023-06-22T07:38:01;13.70;;;6.72;;
15936;SDS011;9163;48.818;8.976;2023-06-22T07:40:29;9.68;;;6.90;;
15936;SDS011;9163;48.818;8.976;2023-06-22T07:42:56;9.45;;;6.53;;
15936;SDS011;9163;48.818;8.976;2023-06-22T07:45:24;9.63;;;6.95;;
15936;SDS011;9163;48.818;8.976;2023-06-22T07:47:52;10.18;;;6.22;;
15936;SDS011;9163;48.818;8.976;2023-06-22T07:50:19;9.00;;;6.55;;
15936;SDS011;9163;48.818;8.976;2023-06-22T07:52:46;11.30;;;6.85;;
15936;SDS011;9163;48.818;8.976;2023-06-22T07:55:14;12.23;;;6.78;;
15936;SDS011;9163;48.818;8.976;2023-06-22T07:57:41;9.40;;;6.32;;
15936;SDS011;9163;48.818;8.976;2023-06-22T08:00:08;10.18;;;6.78;;
15936;SDS011;9163;48.818;8.976;2023-06-22T08:02:40;9.05;;;6.38;;
15936;SDS011;9163;48.818;8.976;2023-06-22T08:05:08;8.50;;;6.20;;
15936;SDS011;9163;48.818;8.976;2023-06-22T08:07:36;9.68;;;6.15;;
15936;SDS011;9163;48.818;8.976;2023-06-22T08:10:04;7.32;;;5.85;;
15936;SDS011;9163;48.818;8.976;2023-06-22T08:12:32;9.50;;;6.00;;
15936;SDS011;9163;48.818;8.976;2023-06-22T08:15:00;9.27;;;6.15;;
15936;SDS011;9163;48.818;8.976;2023-06-22T08:17:27;8.32;;;5.93;;
15936;SDS011;9163;48.818;8.976;2023-06-22T08:19:56;8.10;;;5.88;;
15936;SDS011;9163;48.818;8.976;2023-06-22T08:22:23;10.00;;;5.93;;
15936;SDS011;9163;48.818;8.976;2023-06-22T08:24:50;8.63;;;6.03;;
15936;SDS011;9163;48.818;8.976;2023-06-22T08:27:17;9.85;;;6.00;;
15936;SDS011;9163;48.818;8.976;2023-06-22T08:29:46;8.15;;;5.15;;
15936;SDS011;9163;48.818;8.976;2023-06-22T08:32:15;9.48;;;5.60;;
15936;SDS011;9163;48.818;8.976;2023-06-22T08:34:42;9.38;;;5.53;;
15936;SDS011;9163;48.818;8.976;2023-06-22T08:37:10;7.88;;;5.40;;
15936;SDS011;9163;48.818;8.976;2023-06-22T08:39:38;9.00;;;5.50;;
15936;SDS011;9163;48.818;8.976;2023-06-22T08:42:06;9.18;;;5.32;;
15936;SDS011;9163;48.818;8.976;2023-06-22T08:44:33;8.32;;;5.18;;
15936;SDS011;9163;48.818;8.976;2023-06-22T08:47:00;8.98;;;5.43;;
15936;SDS011;9163;48.818;8.976;2023-06-22T08:49:29;9.85;;;5.43;;
15936;SDS011;9163;48.818;8.976;2023-06-22T08:51:56;9.40;;;5.45;;
15936;SDS011;9163;48.818;8.976;2023-06-22T08:54:24;10.18;;;5.85;;
15936;SDS011;9163;48.818;8.976;2023-06-22T08:56:52;10.98;;;5.20;;
15936;SDS011;9163;48.818;8.976;2023-06-22T08:59:19;9.27;;;5.32;;
15936;SDS011;9163;48.818;8.976;2023-06-22T09:01:46;10.00;;;5.43;;
15936;SDS011;9163;48.818;8.976;2023-06-22T09:04:14;12.02;;;5.18;;
15936;SDS011;9163;48.818;8.976;2023-06-22T09:06:41;13.13;;;5.45;;
15936;SDS011;9163;48.818;8.976;2023-06-22T09:09:12;8.23;;;5.65;;
15936;SDS011;9163;48.818;8.976;2023-06-22T09:11:41;8.57;;;5.25;;
15936;SDS011;9163;48.818;8.976;2023-06-22T09:14:08;7.97;;;5.57;;
15936;SDS011;9163;48.818;8.976;2023-06-22T09:16:37;11.13;;;5.65;;
15936;SDS011;9163;48.818;8.976;2023-06-22T09:19:04;8.75;;;5.53;;
15936;SDS011;9163;48.818;8.976;2023-06-22T09:21:32;8.88;;;5.25;;
15936;SDS011;9163;48.818;8.976;2023-06-22T09:23:59;9.45;;;5.50;;
15936;SDS011;9163;48.818;8.976;2023-06-22T09:26:26;9.73;;;5.80;;
15936;SDS011;9163;48.818;8.976;2023-06-22T09:28:55;13.32;;;5.85;;
15936;SDS011;9163;48.818;8.976;2023-06-22T09:31:23;10.07;;;5.43;;
15936;SDS011;9163;48.818;8.976;2023-06-22T09:33:52;9.40;;;5.45;;
15936;SDS011;9163;48.818;8.976;2023-06-22T09:36:20;13.05;;;6.15;;
15936;SDS011;9163;48.818;8.976;2023-06-22T09:38:47;10.23;;;5.32;;
15936;SDS011;9163;48.818;8.976;2023-06-22T09:41:21;11.40;;;5.65;;
15936;SDS011;9163;48.818;8.976;2023-06-22T09:43:48;8.85;;;5.70;;
15936;SDS011;9163;48.818;8.976;2023-06-22T09:46:17;8.82;;;5.40;;
15936;SDS011;9163;48.818;8.976;2023-06-22T09:48:47;9.02;;;5.45;;
15936;SDS011;9163;48.818;8.976;2023-06-22T09:51:14;9.55;;;5.85;;
15936;SDS011;9163;48.818;8.976;2023-06-22T09:53:41;11.65;;;5.85;;
15936;SDS011;9163;48.818;8.976;2023-06-22T09:56:09;8.80;;;5.55;;
15936;SDS011;9163;48.818;8.976;2023-06-22T09:58:40;9.90;;;5.78;;
15936;SDS011;9163;48.818;8.976;2023-06-22T10:01:09;9.10;;;5.30;;
15936;SDS011;9163;48.818;8.976;2023-06-22T10:03:37;9.43;;;5.90;;
15936;SDS011;9163;48.818;8.976;2023-06-22T10:06:05;10.73;;;5.88;;
15936;SDS011;9163;48.818;8.976;2023-06-22T10:08:32;11.63;;;5.40;;
15936;SDS011;9163;48.818;8.976;2023-06-22T10:10:59;8.95;;;5.47;;
15936;SDS011;9163;48.818;8.976;2023-06-22T10:13:26;10.35;;;5.28;;
15936;SDS011;9163;48.818;8.976;2023-06-22T10:15:54;8.95;;;5.88;;
15936;SDS011;9163;48.818;8.976;2023-06-22T10:18:21;9.75;;;5.53;;
15936;SDS011;9163;48.818;8.976;2023-06-22T10:20:50;10.43;;;5.55;;
15936;SDS011;9163;48.818;8.976;2023-06-22T10:23:18;8.30;;;5.60;;
15936;SDS011;9163;48.818;8.976;2023-06-22T10:25:46;9.57;;;5.18;;
15936;SDS011;9163;48.818;8.976;2023-06-22T10:28:13;11.45;;;5.55;;
15936;SDS011;9163;48.818;8.976;2023-06-22T10:30:41;12.05;;;5.38;;
15936;SDS011;9163;48.818;8.976;2023-06-22T10:33:08;9.57;;;6.15;;
15936;SDS011;9163;48.818;8.976;2023-06-22T10:35:35;10.57;;;5.43;;
15936;SDS011;9163;48.818;8.976;2023-06-22T10:38:05;8.60;;;5.28;;
15936;SDS011;9163;48.818;8.976;2023-06-22T10:40:33;11.70;;;5.45;;
15936;SDS011;9163;48.818;8.976;2023-06-22T10:43:01;8.52;;;5.18;;
15936;SDS011;9163;48.818;8.976;2023-06-22T10:45:28;8.90;;;5.68;;
15936;SDS011;9163;48.818;8.976;2023-06-22T10:47:55;8.73;;;5.28;;
15936;SDS011;9163;48.818;8.976;2023-06-22T10:50:22;9.88;;;5.53;;
15936;SDS011;9163;48.818;8.976;2023-06-22T10:52:51;10.63;;;5.70;;
15936;SDS011;9163;48.818;8.976;2023-06-22T10:55:19;10.30;;;5.57;;
15936;SDS011;9163;48.818;8.976;2023-06-22T10:57:46;9.10;;;5.47;;
15936;SDS011;9163;48.818;8.976;2023-06-22T11:00:14;9.88;;;5.50;;
15936;SDS011;9163;48.818;8.976;2023-06-22T11:02:42;7.88;;;5.40;;
15936;SDS011;9163;48.818;8.976;2023-06-22T11:05:09;10.70;;;5.68;;
15936;SDS011;9163;48.818;8.976;2023-06-22T11:07:37;8.18;;;5.47;;
15936;SDS011;9163;48.818;8.976;2023-06-22T11:10:05;9.23;;;5.22;;
15936;SDS011;9163;48.818;8.976;2023-06-22T11:12:34;7.50;;;5.13;;
15936;SDS011;9163;48.818;8.976;2023-06-22T11:15:01;9.25;;;5.13;;
15936;SDS011;9163;48.818;8.976;2023-06-22T11:17:28;10.82;;;5.40;;
15936;SDS011;9163;48.818;8.976;2023-06-22T11:19:56;9.98;;;5.30;;
15936;SDS011;9163;48.818;8.976;2023-06-22T11:22:24;8.45;;;4.72;;
15936;SDS011;9163;48.818;8.976;2023-06-22T11:24:51;9.13;;;5.55;;
15936;SDS011;9163;48.818;8.976;2023-06-22T11:27:19;11.88;;;5.45;;
15936;SDS011;9163;48.818;8.976;2023-06-22T11:29:47;8.45;;;5.53;;
15936;SDS011;9163;48.818;8.976;2023-06-22T11:32:15;13.32;;;5.65;;
15936;SDS011;9163;48.818;8.976;2023-06-22T11:34:42;9.25;;;5.40;;
15936;SDS011;9163;48.818;8.976;2023-06-22T11:37:09;11.05;;;5.78;;
15936;SDS011;9163;48.818;8.976;2023-06-22T11:39:36;11.73;;;5.95;;
15936;SDS011;9163;48.818;8.976;2023-06-22T11:42:04;9.73;;;5.53;;
15936;SDS011;9163;48.818;8.976;2023-06-22T11:44:31;11.30;;;5.72;;
15936;SDS011;9163;48.818;8.976;2023-06-22T11:47:00;11.32;;;5.95;;
15936;SDS011;9163;48.818;8.976;2023-06-22T11:49:29;10.07;;;5.57;;
15936;SDS011;9163;48.818;8.976;2023-06-22T11:51:57;10.30;;;6.00;;
15936;SDS011;9163;48.818;8.976;2023-06-22T11:54:24;11.32;;;6.00;;
15936;SDS011;9163;48.818;8.976;2023-06-22T11:56:51;9.68;;;5.93;;
15936;SDS011;9163;48.818;8.976;2023-06-22T11:59:18;11.63;;;6.00;;
15936;SDS011;9163;48.818;8.976;2023-06-22T12:01:47;9.93;;;5.85;;
15936;SDS011;9163;48.818;8.976;2023-06-22T12:04:17;9.05;;;5.43;;
15936;SDS011;9163;48.818;8.976;2023-06-22T12:06:45;8.77;;;5.60;;
15936;SDS011;9163;48.818;8.976;2023-06-22T12:09:13;11.20;;;5.63;;
15936;SDS011;9163;48.818;8.976;2023-06-22T12:11:40;11.95;;;5.97;;
15936;SDS011;9163;48.818;8.976;2023-06-22T12:14:07;11.23;;;6.05;;
15936;SDS011;9163;48.818;8.976;2023-06-22T12:16:34;8.85;;;6.20;;
15936;SDS011;9163;48.818;8.976;2023-06-22T12:19:02;11.40;;;6.20;;
15936;SDS011;9163;48.818;8.976;2023-06-22T12:21:30;9.18;;;5.55;;
15936;SDS011;9163;48.818;8.976;2023-06-22T12:23:57;11.98;;;6.25;;
15936;SDS011;9163;48.818;8.976;2023-06-22T12:26:25;8.73;;;5.93;;
15936;SDS011;9163;48.818;8.976;2023-06-22T12:28:52;10.30;;;6.03;;
15936;SDS011;9163;48.818;8.976;2023-06-22T12:31:19;10.73;;;6.25;;
15936;SDS011;9163;48.818;8.976;2023-06-22T12:33:46;14.10;;;6.15;;
15936;SDS011;9163;48.818;8.976;2023-06-22T12:36:13;13.13;;;6.20;;
15936;SDS011;9163;48.818;8.976;2023-06-22T12:38:43;13.93;;;6.47;;
15936;SDS011;9163;48.818;8.976;2023-06-22T12:41:10;10.98;;;6.40;;
15936;SDS011;9163;48.818;8.976;2023-06-22T12:43:37;10.80;;;6.43;;
15936;SDS011;9163;48.818;8.976;2023-06-22T12:46:04;9.15;;;5.78;;
15936;SDS011;9163;48.818;8.976;2023-06-22T12:48:32;10.63;;;6.15;;
15936;SDS011;9163;48.818;8.976;2023-06-22T12:50:59;14.63;;;6.35;;
15936;SDS011;9163;48.818;8.976;2023-06-22T12:53:27;9.40;;;6.43;;
15936;SDS011;9163;48.818;8.976;2023-06-22T12:55:55;14.18;;;6.18;;
15936;SDS011;9163;48.818;8.976;2023-06-22T12:58:24;12.73;;;6.05;;
15936;SDS011;9163;48.818;8.976;2023-06-22T13:00:51;9.10;;;5.65;;
15936;SDS011;9163;48.818;8.976;2023-06-22T13:03:18;13.27;;;6.82;;
15936;SDS011;9163;48.818;8.976;2023-06-22T13:05:45;11.35;;;6.18;;
15936;SDS011;9163;48.818;8.976;2023-06-22T13:08:12;12.02;;;7.00;;
15936;SDS011;9163;48.818;8.976;2023-06-22T13:10:40;12.13;;;6.00;;
15936;SDS011;9163;48.818;8.976;2023-06-22T13:13:08;9.77;;;6.35;;
15936;SDS011;9163;48.818;8.976;2023-06-22T13:15:35;12.48;;;6.45;;
15936;SDS011;9163;48.818;8.976;2023-06-22T13:18:03;10.35;;;6.05;;
15936;SDS011;9163;48.818;8.976;2023-06-22T13:20:30;12.85;;;6.85;;
15936;SDS011;9163;48.818;8.976;2023-06-22T13:22:57;10.73;;;5.90;;
15936;SDS011;9163;48.818;8.976;2023-06-22T13:25:24;10.73;;;6.32;;
15936;SDS011;9163;48.818;8.976;2023-06-22T13:27:52;11.32;;;5.85;;
15936;SDS011;9163;48.818;8.976;2023-06-22T13:30:20;12.80;;;6.47;;
15936;SDS011;9163;48.818;8.976;2023-06-22T13:32:48;13.77;;;6.40;;
15936;SDS011;9163;48.818;8.976;2023-06-22T13:35:15;13.75;;;6.70;;
15936;SDS011;9163;48.818;8.976;2023-06-22T13:37:42;10.75;;;6.55;;
15936;SDS011;9163;48.818;8.976;2023-06-22T13:40:10;11.40;;;6.93;;
15936;SDS011;9163;48.818;8.976;2023-06-22T13:42:37;11.65;;;6.25;;
15936;SDS011;9163;48.818;8.976;2023-06-22T13:45:05;11.50;;;6.70;;
15936;SDS011;9163;48.818;8.976;2023-06-22T13:47:35;11.50;;;6.30;;
15936;SDS011;9163;48.818;8.976;2023-06-22T13:50:03;10.68;;;6.25;;
15936;SDS011;9163;48.818;8.976;2023-06-22T13:52:31;11.18;;;6.03;;
15936;SDS011;9163;48.818;8.976;2023-06-22T13:54:58;11.60;;;6.40;;
15936;SDS011;9163;48.818;8.976;2023-06-22T13:57:25;10.00;;;6.20;;
15936;SDS011;9163;48.818;8.976;2023-06-22T13:59:52;10.27;;;5.53;;
15936;SDS011;9163;48.818;8.976;2023-06-22T14:02:19;10.65;;;5.85;;
15936;SDS011;9163;48.818;8.976;2023-06-22T14:04:48;11.00;;;5.70;;
15936;SDS011;9163;48.818;8.976;2023-06-22T14:07:15;9.77;;;6.05;;
15936;SDS011;9163;48.818;8.976;2023-06-22T14:09:44;10.88;;;5.53;;
15936;SDS011;9163;48.818;8.976;2023-06-22T14:12:12;13.32;;;5.55;;
15936;SDS011;9163;48.818;8.976;2023-06-22T14:14:39;9.88;;;5.50;;
15936;SDS011;9163;48.818;8.976;2023-06-22T14:17:06;12.15;;;4.90;;
15936;SDS011;9163;48.818;8.976;2023-06-22T14:19:34;12.27;;;5.50;;
15936;SDS011;9163;48.818;8.976;2023-06-22T14:22:02;12.35;;;5.57;;
15936;SDS011;9163;48.818;8.976;2023-06-22T14:24:30;11.85;;;5.15;;
15936;SDS011;9163;48.818;8.976;2023-06-22T14:26:57;10.07;;;4.18;;
15936;SDS011;9163;48.818;8.976;2023-06-22T14:29:27;11.60;;;3.78;;
15936;SDS011;9163;48.818;8.976;2023-06-22T14:31:55;9.50;;;3.75;;
15936;SDS011;9163;48.818;8.976;2023-06-22T14:34:22;10.35;;;3.72;;
15936;SDS011;9163;48.818;8.976;2023-06-22T14:36:49;8.50;;;3.17;;
15936;SDS011;9163;48.818;8.976;2023-06-22T14:39:18;10.52;;;3.72;;
15936;SDS011;9163;48.818;8.976;2023-06-22T14:41:46;7.85;;;3.30;;
15936;SDS011;9163;48.818;8.976;2023-06-22T14:44:13;12.02;;;3.38;;
15936;SDS011;9163;48.818;8.976;2023-06-22T14:46:41;13.77;;;3.40;;
15936;SDS011;9163;48.818;8.976;2023-06-22T14:49:08;11.65;;;3.78;;